Time;durP1;ratioP1;P1;durP2;ratioP2;P2;SDS_P1;SDS_P2;PMS_P1;PMS_P2;Temp;Humidity;BMP_temperature;BMP_pressure;BME280_temperature;BME280_humidity;BME280_pressure;Samples;Min_cycle;Max_cycle;Signal;HPM_P1;HPM_P2
2022/05/03 00:00:20;;;;;;;3.97;2.30;;;;;;;24.21;27.63;98868.84;5041299;28;20052;-68
2022/05/03 00:03:08;;;;;;;3.63;2.15;;;;;;;24.23;27.63;98869.44;5072082;28;20506;-68
2022/05/03 00:06:21;;;;;;;2.55;1.75;;;;;;;24.23;27.90;98866.75;5071819;28;20029;-67
2022/05/03 00:09:03;;;;;;;4.15;2.55;;;;;;;24.22;27.78;98861.53;5010544;28;20409;-68
2022/05/03 00:11:38;;;;;;;4.43;2.13;;;;;;;24.20;28.02;98867.19;5010114;28;20513;-69
2022/05/03 00:14:08;;;;;;;3.00;1.90;;;;;;;24.18;27.41;98863.06;5050069;28;20415;-68
2022/05/03 00:16:35;;;;;;;3.13;1.87;;;;;;;24.13;27.72;98854.81;5075232;28;20093;-69
2022/05/03 00:19:05;;;;;;;3.25;1.90;;;;;;;24.10;27.79;98860.66;5075983;28;20385;-68
2022/05/03 00:21:33;;;;;;;3.80;1.75;;;;;;;24.05;28.00;98848.63;5075816;28;20044;-69
2022/05/03 00:23:59;;;;;;;4.18;2.15;;;;;;;24.03;28.08;98850.78;5076706;28;20032;-69
2022/05/03 00:26:28;;;;;;;3.78;1.83;;;;;;;24.01;28.19;98844.75;5075164;28;20068;-68
2022/05/03 00:28:55;;;;;;;5.63;2.00;;;;;;;23.96;27.93;98838.34;5076221;28;20036;-68
2022/05/03 00:31:21;;;;;;;2.83;1.70;;;;;;;23.93;28.53;98845.00;5075837;28;20039;-68
2022/05/03 00:33:47;;;;;;;3.30;1.92;;;;;;;23.90;28.55;98840.06;5074545;28;20075;-67
2022/05/03 00:36:12;;;;;;;4.30;1.90;;;;;;;23.86;28.79;98842.38;5069460;28;20560;-69
2022/05/03 00:38:38;;;;;;;3.83;2.20;;;;;;;23.83;28.70;98840.13;5076257;28;20156;-70
2022/05/03 00:41:07;;;;;;;2.33;2.03;;;;;;;23.81;29.19;98836.84;5075665;28;20391;-69
2022/05/03 00:43:41;;;;;;;8.90;1.90;;;;;;;23.77;29.32;98833.75;5075744;28;20040;-69
2022/05/03 00:46:14;;;;;;;4.95;2.05;;;;;;;23.76;29.42;98829.41;5075157;28;20036;-69
2022/05/03 00:48:57;;;;;;;3.03;2.05;;;;;;;23.74;29.56;98826.13;5076000;28;20036;-69
2022/05/03 00:51:33;;;;;;;4.60;1.90;;;;;;;23.71;29.48;98817.63;5074720;28;20181;-71
2022/05/03 00:54:30;;;;;;;2.35;1.65;;;;;;;23.69;29.80;98812.47;5075103;28;20059;-68
2022/05/03 00:57:20;;;;;;;3.45;1.80;;;;;;;23.68;29.57;98821.63;5065749;28;20037;-71
2022/05/03 01:00:13;;;;;;;4.00;2.17;;;;;;;23.64;29.69;98812.28;5074753;28;20036;-68
2022/05/03 01:02:52;;;;;;;2.60;1.52;;;;;;;23.62;29.87;98817.09;5073873;28;20035;-69
2022/05/03 01:05:28;;;;;;;5.38;1.90;;;;;;;23.61;29.97;98812.75;5075117;28;20495;-70
2022/05/03 01:08:07;;;;;;;5.03;2.03;;;;;;;23.59;29.83;98812.16;5075040;28;20028;-70
2022/05/03 01:10:37;;;;;;;7.28;1.83;;;;;;;23.59;29.83;98807.56;5075357;28;20039;-68
2022/05/03 01:13:18;;;;;;;3.35;2.05;;;;;;;23.58;30.02;98802.41;5074837;28;20044;-67
2022/05/03 01:15:48;;;;;;;2.88;1.90;;;;;;;23.57;29.92;98800.75;5075848;28;20037;-67
2022/05/03 01:18:29;;;;;;;3.30;1.90;;;;;;;23.56;30.28;98807.22;5075105;28;20051;-68
2022/05/03 01:20:57;;;;;;;;;;;;;;;23.55;30.02;98802.84;5075334;28;20036;-66
2022/05/03 01:23:44;;;;;;;2.80;1.85;;;;;;;23.55;30.17;98797.44;5074562;28;19922;-65
2022/05/03 01:27:05;;;;;;;4.70;2.00;;;;;;;23.56;29.98;98801.81;5074322;28;20110;-67
2022/05/03 01:29:32;;;;;;;6.30;1.83;;;;;;;23.52;30.19;98792.50;5013306;28;20109;-67
2022/05/03 01:32:02;;;;;;;3.15;1.90;;;;;;;23.50;30.25;98783.78;5057584;28;20040;-66
2022/05/03 01:34:29;;;;;;;4.78;1.83;;;;;;;23.45;30.27;98779.06;5074111;28;20064;-66
2022/05/03 01:37:00;;;;;;;6.85;1.85;;;;;;;23.43;30.26;98782.00;5074180;28;20029;-64
2022/05/03 01:39:37;;;;;;;8.30;1.85;;;;;;;23.39;30.55;98775.38;5074112;28;20036;-65
2022/05/03 01:42:09;;;;;;;4.30;1.83;;;;;;;23.38;30.56;98783.72;5073836;28;20033;-65
2022/05/03 01:44:34;;;;;;;3.35;1.85;;;;;;;23.35;30.51;98781.47;5073921;28;20028;-65
2022/05/03 01:47:18;;;;;;;3.20;1.70;;;;;;;23.33;30.36;98781.66;5073892;28;20510;-65
2022/05/03 01:50:18;;;;;;;5.43;2.08;;;;;;;23.31;30.34;98781.06;5073977;28;20032;-65
2022/05/03 01:53:18;;;;;;;2.63;1.77;;;;;;;23.26;30.34;98772.81;5073890;28;20460;-66
2022/05/03 01:55:46;;;;;;;4.00;1.92;;;;;;;23.23;30.27;98771.41;5061514;28;20086;-64
2022/05/03 01:58:14;;;;;;;4.70;1.88;;;;;;;23.21;30.37;98765.41;5054270;28;20041;-66
2022/05/03 02:00:47;;;;;;;2.60;1.88;;;;;;;23.21;30.35;98769.97;5054036;28;20072;-66
2022/05/03 02:03:28;;;;;;;4.03;2.08;;;;;;;23.19;30.42;98767.47;5054616;28;20059;-66
2022/05/03 02:06:09;;;;;;;4.60;1.83;;;;;;;23.17;30.53;98764.16;5053477;28;20029;-65
2022/05/03 02:09:03;;;;;;;2.95;2.08;;;;;;;23.14;30.44;98762.75;5053928;28;20119;-66
2022/05/03 02:11:45;;;;;;;4.32;1.92;;;;;;;23.14;30.40;98768.13;5053250;28;20040;-66
2022/05/03 02:14:45;;;;;;;3.25;1.73;;;;;;;23.12;30.50;98770.22;5053522;28;20029;-66
2022/05/03 02:17:35;;;;;;;2.42;1.75;;;;;;;23.11;30.52;98768.56;5044856;28;20041;-67
2022/05/03 02:20:31;;;;;;;4.45;1.92;;;;;;;23.12;30.50;98777.47;5073155;28;20119;-66
2022/05/03 02:23:12;;;;;;;4.00;2.15;;;;;;;23.11;30.46;98760.47;5073531;28;20024;-67
2022/05/03 02:25:56;;;;;;;;;;;;;;;23.09;30.45;98767.97;5073156;28;20032;-67
2022/05/03 02:28:50;;;;;;;2.97;1.67;;;;;;;23.09;30.41;98759.88;5073305;28;19920;-66
2022/05/03 02:31:24;;;;;;;2.22;1.80;;;;;;;23.10;30.52;98766.91;5073053;28;20032;-67
2022/05/03 02:33:56;;;;;;;3.40;1.92;;;;;;;23.12;30.81;98755.91;5073304;28;20467;-65
2022/05/03 02:36:24;;;;;;;4.28;2.00;;;;;;;23.10;30.57;98757.97;5072873;28;20411;-67
2022/05/03 02:39:05;;;;;;;3.15;1.77;;;;;;;23.13;30.70;98750.28;5072529;28;20050;-66
2022/05/03 02:41:39;;;;;;;2.85;1.90;;;;;;;23.12;30.69;98745.94;5072989;28;20033;-65
2022/05/03 02:44:05;;;;;;;3.60;1.92;;;;;;;23.14;30.70;98751.94;5072398;28;20043;-66
2022/05/03 02:46:49;;;;;;;2.70;1.83;;;;;;;23.14;30.81;98740.31;5072927;28;20028;-67
2022/05/03 02:49:19;;;;;;;3.92;1.50;;;;;;;23.13;30.89;98744.91;5072879;28;20121;-66
2022/05/03 02:51:56;;;;;;;3.10;1.97;;;;;;;23.12;30.78;98745.94;5072705;28;20044;-66
2022/05/03 02:54:43;;;;;;;5.97;2.05;;;;;;;23.13;30.99;98744.06;5072628;28;20308;-68
2022/05/03 02:57:24;;;;;;;2.70;1.95;;;;;;;23.14;30.82;98734.91;5072343;28;20024;-65
2022/05/03 03:02:59;;;;;;;2.45;1.80;;;;;;;23.14;30.74;98732.22;5073038;28;20036;-67
2022/05/03 03:05:28;;;;;;;1.95;1.63;;;;;;;23.16;30.81;98730.94;5072537;28;20632;-65
2022/05/03 03:07:59;;;;;;;2.72;1.90;;;;;;;23.19;30.57;98731.53;5072642;28;20044;-66
2022/05/03 03:10:32;;;;;;;2.95;1.70;;;;;;;23.22;30.75;98723.88;5072430;28;20028;-65
2022/05/03 03:13:17;;;;;;;3.05;1.73;;;;;;;23.26;30.75;98718.84;5072640;28;20040;-66
2022/05/03 03:15:42;;;;;;;2.60;1.70;;;;;;;23.31;30.56;98729.78;5072426;28;20047;-67
2022/05/03 03:18:19;;;;;;;3.30;1.80;;;;;;;23.41;30.52;98730.09;5072099;28;20028;-66
2022/05/03 03:20:46;;;;;;;2.75;2.03;;;;;;;23.52;30.45;98733.09;5071984;28;20476;-65
2022/05/03 03:23:18;;;;;;;3.13;1.83;;;;;;;23.65;30.40;98724.84;5072168;28;20044;-66
2022/05/03 03:25:47;;;;;;;2.75;2.30;;;;;;;23.82;30.10;98722.34;5071680;28;20032;-67
2022/05/03 03:28:16;;;;;;;3.35;1.90;;;;;;;23.99;30.00;98714.47;5072471;28;20127;-65
2022/05/03 03:30:44;;;;;;;3.83;2.25;;;;;;;24.14;29.90;98724.03;5072043;28;20047;-66
2022/05/03 03:33:12;;;;;;;3.75;2.50;;;;;;;24.26;29.81;98730.28;5072064;28;20043;-64
2022/05/03 03:35:40;;;;;;;3.45;1.83;;;;;;;24.39;29.49;98723.88;5072246;28;20036;-67
2022/05/03 03:38:10;;;;;;;3.95;2.08;;;;;;;24.55;29.65;98716.16;5072937;28;20036;-66
2022/05/03 03:40:36;;;;;;;3.97;2.03;;;;;;;24.69;29.38;98714.88;5072705;28;20442;-67
2022/05/03 03:43:01;;;;;;;2.35;1.58;;;;;;;24.84;29.59;98717.13;5072401;28;20086;-65
2022/05/03 03:45:27;;;;;;;2.67;2.08;;;;;;;24.92;29.27;98716.81;5072752;28;20495;-66
2022/05/03 03:47:55;;;;;;;4.20;2.00;;;;;;;25.04;29.22;98724.09;5073133;28;20040;-64
2022/05/03 03:50:22;;;;;;;4.20;1.73;;;;;;;25.08;28.86;98715.25;5071751;28;20033;-68
2022/05/03 03:52:48;;;;;;;3.97;2.40;;;;;;;25.13;29.09;98711.84;5072941;28;20032;-66
2022/05/03 03:55:14;;;;;;;3.22;2.03;;;;;;;25.13;28.87;98709.13;5072599;28;20036;-66
2022/05/03 03:57:40;;;;;;;3.22;2.00;;;;;;;25.09;28.82;98716.91;5072393;28;20177;-66
2022/05/03 04:00:08;;;;;;;3.08;1.60;;;;;;;25.07;28.93;98708.19;5072622;28;20025;-68
2022/05/03 04:02:35;;;;;;;3.10;2.00;;;;;;;25.07;28.83;98707.38;5072195;28;20032;-68
2022/05/03 04:05:01;;;;;;;3.45;2.10;;;;;;;25.03;28.69;98701.59;5072650;28;20157;-66
2022/05/03 04:07:27;;;;;;;4.03;2.17;;;;;;;25.06;28.78;98689.50;5072245;28;20059;-65
2022/05/03 04:09:52;;;;;;;3.35;1.75;;;;;;;25.06;28.86;98693.00;5072555;28;20107;-65
2022/05/03 04:12:22;;;;;;;2.47;1.85;;;;;;;25.09;28.88;98702.53;5072276;28;20036;-66
2022/05/03 04:14:48;;;;;;;6.60;1.95;;;;;;;25.10;28.69;98694.19;5072335;28;20032;-65
2022/05/03 04:17:13;;;;;;;3.08;1.77;;;;;;;25.19;29.00;98693.81;5072927;28;20029;-67
2022/05/03 04:19:39;;;;;;;2.65;1.67;;;;;;;25.23;28.71;98697.72;5072492;28;20039;-66
2022/05/03 04:22:25;;;;;;;2.70;2.17;;;;;;;25.31;28.77;98697.31;5072052;28;20024;-68
2022/05/03 04:24:52;;;;;;;3.47;2.10;;;;;;;25.38;28.39;98692.63;5073175;28;20421;-68
2022/05/03 04:27:19;;;;;;;3.08;2.03;;;;;;;25.42;28.97;98690.28;5071963;28;20143;-66
2022/05/03 04:29:44;;;;;;;3.45;2.05;;;;;;;25.47;28.73;98695.81;5072144;28;20485;-66
2022/05/03 04:32:10;;;;;;;4.47;2.60;;;;;;;25.51;28.47;98699.69;5072153;28;20033;-67
2022/05/03 04:34:35;;;;;;;3.47;1.85;;;;;;;25.54;28.49;98684.84;5072010;28;20480;-65
2022/05/03 04:37:01;;;;;;;2.78;2.03;;;;;;;25.54;28.17;98685.66;5071889;28;20051;-64
2022/05/03 04:39:26;;;;;;;3.20;2.20;;;;;;;25.63;28.28;98690.72;5072307;28;20115;-66
2022/05/03 04:41:52;;;;;;;4.20;2.30;;;;;;;25.72;28.19;98684.66;5072250;28;20032;-67
2022/05/03 04:44:18;;;;;;;4.25;2.22;;;;;;;25.84;28.25;98681.88;5071804;28;20036;-68
2022/05/03 04:46:43;;;;;;;3.17;2.20;;;;;;;25.87;28.06;98673.28;5070697;28;20037;-67
2022/05/03 04:49:09;;;;;;;3.15;2.22;;;;;;;25.87;28.29;98675.19;5072272;28;20170;-67
2022/05/03 04:51:34;;;;;;;6.82;2.75;;;;;;;25.90;28.31;98678.22;5071989;28;20036;-67
2022/05/03 04:53:59;;;;;;;5.18;2.22;;;;;;;25.92;28.22;98675.25;5072331;28;20051;-68
2022/05/03 04:56:25;;;;;;;5.35;2.13;;;;;;;26.00;28.07;98669.47;5054157;28;20037;-67
2022/05/03 04:58:56;;;;;;;4.00;2.30;;;;;;;26.04;28.00;98672.50;5052158;28;20039;-68
2022/05/03 05:01:22;;;;;;;3.67;2.38;;;;;;;26.04;27.95;98673.31;5053357;28;20036;-67
2022/05/03 05:03:48;;;;;;;4.25;2.10;;;;;;;26.10;27.69;98670.69;5055702;28;20388;-67
2022/05/03 05:06:14;;;;;;;3.00;2.10;;;;;;;26.13;27.88;98670.25;5055528;28;20036;-68
2022/05/03 05:08:42;;;;;;;3.45;2.08;;;;;;;26.18;27.71;98673.88;5055945;28;20037;-68
2022/05/03 05:11:08;;;;;;;3.55;2.45;;;;;;;26.22;27.64;98673.38;5055564;28;20082;-68
2022/05/03 05:13:36;;;;;;;5.00;2.25;;;;;;;26.25;27.72;98662.88;5053922;28;20469;-66
2022/05/03 05:16:02;;;;;;;3.65;2.15;;;;;;;26.28;27.65;98664.25;5055517;28;20033;-68
2022/05/03 05:18:28;;;;;;;5.38;2.25;;;;;;;26.29;27.78;98652.34;5055283;28;20551;-66
2022/05/03 05:20:54;;;;;;;13.55;2.72;;;;;;;26.38;27.58;98661.72;5055400;28;20108;-68
2022/05/03 05:23:19;;;;;;;4.32;2.40;;;;;;;26.43;27.68;98647.44;5055215;28;20029;-67
2022/05/03 05:25:47;;;;;;;4.50;1.90;;;;;;;26.49;27.49;98649.13;5054793;28;20057;-68
2022/05/03 05:28:13;;;;;;;3.80;2.15;;;;;;;26.54;27.29;98648.41;5055346;28;20043;-67
2022/05/03 05:30:39;;;;;;;3.42;2.63;;;;;;;26.57;27.30;98645.19;5055063;28;20506;-68
2022/05/03 05:33:05;;;;;;;6.78;2.30;;;;;;;26.60;27.44;98650.13;5056667;28;20037;-66
2022/05/03 05:35:30;;;;;;;2.92;2.03;;;;;;;26.64;27.40;98648.56;5074829;28;20484;-66
2022/05/03 05:37:56;;;;;;;4.63;2.90;;;;;;;26.66;27.41;98649.94;5075451;28;20052;-68
2022/05/03 05:40:21;;;;;;;2.95;2.25;;;;;;;26.82;27.42;98641.25;5073571;28;20115;-67
2022/05/03 05:42:49;;;;;;;3.15;2.30;;;;;;;26.96;27.16;98637.09;5075031;28;20025;-68
2022/05/03 05:45:16;;;;;;;4.30;1.85;;;;;;;27.14;27.05;98632.44;5074652;28;20399;-67
2022/05/03 05:47:42;;;;;;;5.30;2.13;;;;;;;27.24;26.86;98633.38;5074999;28;20051;-68
2022/05/03 05:50:11;;;;;;;6.10;2.42;;;;;;;27.20;26.85;98623.28;5074635;28;20036;-67
2022/05/03 05:55:21;;;;;;;4.78;2.70;;;;;;;27.24;26.94;98619.00;5074603;28;20070;-65
2022/05/03 05:57:47;;;;;;;7.82;2.70;;;;;;;27.15;27.11;98615.06;5074662;28;20036;-68
2022/05/03 06:00:13;;;;;;;3.97;2.40;;;;;;;27.18;26.99;98609.97;5074308;28;20029;-65
2022/05/03 06:02:39;;;;;;;5.35;2.20;;;;;;;27.19;26.96;98613.50;5074248;28;20487;-66
2022/05/03 06:05:06;;;;;;;2.75;2.00;;;;;;;27.11;26.98;98610.16;5074197;28;20040;-68
2022/05/03 06:07:31;;;;;;;4.65;1.20;;;;;;;27.06;27.13;98610.09;5074388;28;20036;-66
2022/05/03 06:09:57;;;;;;;5.38;2.00;;;;;;;27.01;26.99;98612.72;5074289;28;20499;-65
2022/05/03 06:12:22;;;;;;;3.60;2.00;;;;;;;27.00;27.39;98610.28;5073564;28;20043;-67
2022/05/03 06:14:48;;;;;;;2.83;1.90;;;;;;;26.95;27.29;98608.31;5074692;28;20039;-67
2022/05/03 06:17:13;;;;;;;6.53;2.05;;;;;;;26.94;27.48;98599.34;5074374;28;20499;-67
2022/05/03 06:19:39;;;;;;;4.15;2.13;;;;;;;26.93;27.33;98602.31;5074356;28;20038;-66
2022/05/03 06:22:04;;;;;;;4.82;1.90;;;;;;;26.94;27.60;98595.81;5073919;28;20399;-67
2022/05/03 06:24:30;;;;;;;2.65;1.90;;;;;;;26.99;27.45;98595.06;5074173;28;20479;-65
2022/05/03 06:26:55;;;;;;;3.75;2.10;;;;;;;27.05;27.30;98604.91;5073645;28;20052;-65
2022/05/03 06:29:20;;;;;;;2.63;2.10;;;;;;;27.10;27.17;98599.53;5073920;28;20032;-65
2022/05/03 06:31:46;;;;;;;5.20;2.20;;;;;;;27.13;27.31;98592.81;5073444;28;20039;-67
2022/05/03 06:34:11;;;;;;;8.23;2.47;;;;;;;27.15;27.18;98585.19;5074014;28;20519;-68
2022/05/03 06:36:37;;;;;;;3.97;2.67;;;;;;;27.16;27.16;98576.81;5073612;28;20048;-66
2022/05/03 06:39:06;;;;;;;2.55;1.77;;;;;;;27.18;27.15;98579.25;5073646;28;20108;-65
2022/05/03 06:41:32;;;;;;;3.42;1.90;;;;;;;27.17;26.85;98575.75;5073700;28;20541;-66
2022/05/03 06:43:58;;;;;;;3.17;2.13;;;;;;;27.19;26.74;98575.47;5073906;28;20029;-68
2022/05/03 06:46:28;;;;;;;3.90;1.30;;;;;;;27.18;27.13;98577.38;5073784;28;20032;-66
2022/05/03 06:48:54;;;;;;;4.18;1.92;;;;;;;27.19;26.93;98578.19;5073960;28;20387;-67
2022/05/03 06:51:20;;;;;;;3.70;1.83;;;;;;;27.21;26.91;98576.03;5073090;28;20032;-67
2022/05/03 06:53:46;;;;;;;2.85;2.10;;;;;;;27.22;26.91;98578.50;5073188;28;20085;-67
2022/05/03 06:56:12;;;;;;;3.88;1.67;;;;;;;27.23;26.83;98572.00;5073074;28;20090;-64
2022/05/03 06:58:39;;;;;;;4.78;1.85;;;;;;;27.25;26.85;98577.19;5073619;28;20438;-67
2022/05/03 07:01:12;;;;;;;2.60;1.52;;;;;;;27.27;26.85;98566.91;5073194;28;20460;-65
2022/05/03 07:03:38;;;;;;;2.58;1.90;;;;;;;27.31;26.74;98570.72;5072998;28;20036;-67
2022/05/03 07:06:04;;;;;;;2.88;1.75;;;;;;;27.31;27.16;98550.91;5073130;28;20024;-66
2022/05/03 07:08:30;;;;;;;2.25;1.33;;;;;;;27.35;26.93;98552.03;5073214;28;20052;-65
2022/05/03 07:10:56;;;;;;;2.25;1.65;;;;;;;27.37;26.57;98550.69;5073155;28;20520;-66
2022/05/03 07:13:23;;;;;;;2.53;1.42;;;;;;;27.40;26.65;98558.34;5072930;28;20040;-67
2022/05/03 07:15:53;;;;;;;7.35;1.77;;;;;;;27.42;26.75;98545.31;5073265;28;20118;-67
2022/05/03 07:23:46;;;;;;;5.15;1.80;;;;;;;27.45;26.59;98541.31;5073041;28;20043;-67
2022/05/03 07:26:12;;;;;;;4.80;1.73;;;;;;;27.47;26.60;98541.88;5071997;28;20079;-68
2022/05/03 07:28:38;;;;;;;2.75;1.70;;;;;;;27.45;26.73;98537.72;5073067;28;20035;-66
2022/05/03 07:31:04;;;;;;;3.92;2.10;;;;;;;27.45;26.70;98532.28;5072953;28;20059;-65
2022/05/03 07:33:29;;;;;;;3.60;1.88;;;;;;;27.44;26.65;98527.94;5072431;28;20098;-66
2022/05/03 07:35:55;;;;;;;2.60;1.50;;;;;;;27.42;26.71;98526.28;5072869;28;20131;-68
2022/05/03 07:38:20;;;;;;;2.42;1.70;;;;;;;27.41;26.80;98521.97;5072659;28;20036;-66
2022/05/03 07:40:46;;;;;;;2.47;1.60;;;;;;;27.38;26.67;98529.78;5073050;28;20032;-64
2022/05/03 07:43:11;;;;;;;2.10;1.50;;;;;;;27.35;26.64;98516.75;5072510;28;20044;-67
2022/05/03 07:45:37;;;;;;;3.00;1.75;;;;;;;27.33;26.41;98508.81;5072620;28;20029;-64
2022/05/03 07:48:04;;;;;;;2.30;1.60;;;;;;;27.32;26.57;98522.66;5072467;28;20388;-65
2022/05/03 07:50:30;;;;;;;4.07;1.83;;;;;;;27.27;26.67;98520.72;5072276;28;20133;-68
2022/05/03 07:52:55;;;;;;;3.00;1.55;;;;;;;27.25;26.73;98512.81;5072526;28;20071;-65
2022/05/03 07:55:21;;;;;;;4.75;1.90;;;;;;;27.25;26.65;98506.59;5072072;28;20036;-67
2022/05/03 11:07:33;;;;;;;2.47;1.15;;;;;;;27.18;25.51;98326.75;5412981;23;20056;-67
2022/05/03 11:10:39;;;;;;;4.93;1.55;;;;;;;27.18;25.78;98321.31;4952430;28;20486;-70
2022/05/03 11:13:05;;;;;;;4.70;2.22;;;;;;;27.15;25.72;98321.84;4934768;29;20031;-66
2022/05/03 11:15:30;;;;;;;7.57;1.80;;;;;;;27.14;25.37;98312.03;4932602;29;20119;-68
2022/05/03 11:17:56;;;;;;;4.72;1.40;;;;;;;27.08;25.46;98309.31;4934508;29;20039;-68
2022/05/03 11:20:22;;;;;;;3.08;1.10;;;;;;;27.07;25.71;98315.81;4933332;29;20043;-65
2022/05/03 11:22:49;;;;;;;3.35;1.60;;;;;;;27.10;25.97;98314.47;4935604;29;20533;-67
2022/05/03 11:25:15;;;;;;;4.57;2.00;;;;;;;27.07;25.84;98304.97;4935419;29;20039;-68
2022/05/03 11:27:43;;;;;;;6.97;1.98;;;;;;;27.06;26.07;98306.03;4930291;29;20451;-68
2022/05/03 11:30:11;;;;;;;5.40;1.40;;;;;;;27.08;26.30;98303.88;4928261;29;20503;-65
2022/05/03 11:32:42;;;;;;;7.05;1.90;;;;;;;27.10;26.41;98309.03;4929152;29;20028;-65
2022/05/03 11:35:11;;;;;;;3.50;1.50;;;;;;;27.10;26.76;98299.00;4916592;29;20487;-66
2022/05/03 11:37:45;;;;;;;3.67;1.40;;;;;;;27.11;26.74;98294.38;4924891;29;20751;-68
2022/05/03 11:40:11;;;;;;;2.83;1.48;;;;;;;27.13;27.08;98296.88;4933734;29;20039;-68
2022/05/03 11:42:42;;;;;;;8.18;1.73;;;;;;;27.15;27.39;98283.81;4928277;29;20124;-64
2022/05/03 11:45:09;;;;;;;5.03;1.17;;;;;;;27.15;26.91;98289.25;4927874;29;20039;-67
2022/05/03 11:47:37;;;;;;;4.53;1.65;;;;;;;27.16;27.29;98270.00;4928340;29;20074;-67
2022/05/03 11:50:04;;;;;;;8.52;1.77;;;;;;;27.18;27.26;98286.84;4935407;29;20035;-69
2022/05/03 11:57:57;;;;;;;5.47;1.73;;;;;;;27.16;27.38;98274.59;4936379;29;20046;-66
2022/05/03 12:00:23;;;;;;;5.45;1.58;;;;;;;27.16;27.27;98274.59;4918413;29;20036;-67
2022/05/03 12:02:48;;;;;;;5.55;1.75;;;;;;;27.15;27.24;98262.94;4928584;29;20491;-65
2022/05/03 12:05:17;;;;;;;10.95;1.65;;;;;;;27.16;27.23;98274.59;4935129;29;20062;-66
2022/05/03 12:07:50;;;;;;;4.68;1.52;;;;;;;27.12;26.53;98252.59;4938619;29;20052;-67
2022/05/03 12:10:26;;;;;;;9.15;2.15;;;;;;;27.14;26.86;98263.19;4933959;29;20367;-66
2022/05/03 12:13:16;;;;;;;15.63;2.92;;;;;;;27.16;26.80;98258.31;4920157;29;20032;-66
2022/05/03 12:15:42;;;;;;;10.63;2.27;;;;;;;27.16;26.64;98266.47;4922947;29;20047;-64
2022/05/03 12:18:21;;;;;;;5.35;1.92;;;;;;;27.16;26.54;98261.84;4920485;29;20279;-65
2022/05/03 12:20:59;;;;;;;4.88;1.80;;;;;;;27.13;26.16;98245.28;4920470;29;20039;-66
2022/05/03 12:23:34;;;;;;;6.40;2.80;;;;;;;27.11;26.33;98256.38;4936761;29;20039;-69
2022/05/03 12:26:25;;;;;;;5.30;1.88;;;;;;;27.11;26.17;98264.53;4955677;29;20094;-69
2022/05/03 12:28:55;;;;;;;3.92;1.80;;;;;;;27.12;26.23;98258.03;4938717;29;20249;-65
2022/05/03 12:31:22;;;;;;;4.90;1.77;;;;;;;27.13;25.99;98248.81;4938261;29;20034;-67
2022/05/03 12:33:53;;;;;;;1.98;1.45;;;;;;;27.12;25.69;98252.59;4936298;29;20039;-66
2022/05/03 12:36:35;;;;;;;3.50;1.95;;;;;;;27.08;25.64;98241.44;4930018;29;20118;-66
2022/05/03 12:39:21;;;;;;;4.53;1.60;;;;;;;27.11;25.68;98245.53;4926497;29;20062;-67
2022/05/03 12:42:10;;;;;;;4.75;1.15;;;;;;;27.11;25.61;98242.81;4938203;29;20379;-67
2022/05/03 12:44:51;;;;;;;4.95;1.30;;;;;;;27.10;25.38;98238.47;4926859;29;20561;-67
2022/05/03 12:47:16;;;;;;;2.55;1.30;;;;;;;27.09;25.49;98255.81;4932699;29;20038;-65
2022/05/03 12:49:42;;;;;;;4.10;1.23;;;;;;;27.09;25.63;98242.25;4945626;29;20042;-66
2022/05/03 12:52:08;;;;;;;5.90;1.35;;;;;;;27.09;25.35;98229.50;4949443;29;20506;-67
2022/05/03 12:54:37;;;;;;;4.53;1.77;;;;;;;27.08;25.41;98246.88;4938380;29;20050;-67
2022/05/03 12:59:49;;;;;;;3.08;1.70;;;;;;;27.09;25.49;98229.50;4937581;29;20548;-67
2022/05/03 13:02:14;;;;;;;4.93;1.67;;;;;;;27.09;25.15;98213.22;4937890;29;20094;-65
2022/05/03 13:04:40;;;;;;;2.85;1.15;;;;;;;27.10;25.10;98233.84;4937053;29;20383;-68
2022/05/03 13:07:05;;;;;;;3.53;1.80;;;;;;;27.10;25.10;98236.56;4937873;29;20058;-67
2022/05/03 13:09:31;;;;;;;8.82;1.92;;;;;;;27.08;25.22;98238.72;4937300;29;20410;-68
2022/05/03 13:11:58;;;;;;;3.42;1.40;;;;;;;27.07;25.52;98234.38;4935931;29;20083;-65
2022/05/03 13:14:26;;;;;;;3.63;1.67;;;;;;;27.07;25.23;98234.38;4932880;29;20546;-67
2022/05/03 13:16:52;;;;;;;8.00;1.33;;;;;;;27.07;25.35;98222.69;4936637;29;20040;-67
2022/05/03 13:19:18;;;;;;;4.28;2.20;;;;;;;27.06;25.63;98229.19;4932430;29;20510;-67
2022/05/03 13:21:44;;;;;;;8.02;1.90;;;;;;;27.07;25.48;98233.53;4957264;28;20046;-67
2022/05/03 13:24:11;;;;;;;6.00;1.58;;;;;;;27.06;25.44;98226.47;4955966;29;20110;-64
2022/05/03 13:26:39;;;;;;;6.47;1.50;;;;;;;27.07;25.50;98230.81;4949864;29;20035;-68
2022/05/03 13:29:13;;;;;;;12.45;1.58;;;;;;;27.08;25.30;98229.75;4929439;29;20035;-67
2022/05/03 13:31:39;;;;;;;9.07;1.45;;;;;;;27.06;25.18;98227.31;4937358;29;20028;-67
2022/05/03 13:34:09;;;;;;;6.93;1.60;;;;;;;27.06;24.86;98230.03;4938185;29;20594;-69
2022/05/03 13:42:03;;;;;;;7.63;1.85;;;;;;;26.98;24.96;98226.97;4938133;29;20066;-67
2022/05/03 13:44:29;;;;;;;4.72;1.30;;;;;;;26.99;24.90;98232.13;4937522;29;20094;-68
2022/05/03 13:46:54;;;;;;;5.82;1.55;;;;;;;26.96;24.79;98233.47;4937490;29;20039;-68
2022/05/03 13:49:20;;;;;;;5.28;1.98;;;;;;;26.92;24.78;98226.13;4937704;29;20115;-68
2022/05/03 13:51:47;;;;;;;3.10;1.10;;;;;;;26.94;25.14;98241.06;4937250;29;20032;-68
2022/05/03 13:54:13;;;;;;;3.25;1.15;;;;;;;26.97;24.91;98234.31;4937333;29;20035;-69
2022/05/03 13:56:38;;;;;;;5.05;1.40;;;;;;;26.96;24.66;98229.97;4937327;29;20098;-68
2022/05/03 13:59:04;;;;;;;4.25;0.98;;;;;;;26.94;24.76;98234.84;4937521;29;20047;-67
2022/05/03 14:01:32;;;;;;;3.28;1.10;;;;;;;26.93;24.68;98228.56;4936925;29;20044;-67
2022/05/03 14:03:59;;;;;;;1.75;1.05;;;;;;;26.93;24.12;98222.34;4937079;29;20122;-68
2022/05/03 14:06:25;;;;;;;1.70;1.23;;;;;;;26.92;24.59;98232.34;4937236;29;20045;-66
2022/05/03 14:08:51;;;;;;;4.47;1.40;;;;;;;26.93;24.53;98234.00;4936898;29;20499;-66
2022/05/03 14:11:17;;;;;;;5.95;1.27;;;;;;;26.92;24.51;98234.28;4937021;29;20032;-68
2022/05/03 14:13:42;;;;;;;4.18;1.65;;;;;;;26.90;24.43;98234.53;4937119;29;20043;-67
2022/05/03 14:16:08;;;;;;;3.13;1.20;;;;;;;26.90;24.49;98228.28;4937098;29;20387;-68
2022/05/03 14:18:33;;;;;;;1.80;0.93;;;;;;;26.90;24.39;98229.13;4936952;29;20062;-67
2022/05/03 14:20:59;;;;;;;1.67;1.10;;;;;;;26.92;24.59;98226.94;4936938;29;20087;-68
2022/05/03 14:23:24;;;;;;;3.03;0.95;;;;;;;26.94;24.43;98229.41;4936965;29;20067;-68
2022/05/03 14:25:50;;;;;;;1.98;0.95;;;;;;;26.92;24.37;98217.97;4936971;29;20493;-68
2022/05/03 14:28:16;;;;;;;1.58;1.17;;;;;;;26.91;24.30;98225.28;4936859;29;20043;-68
2022/05/03 14:30:41;;;;;;;2.92;1.33;;;;;;;26.89;24.40;98229.34;4936520;29;20043;-68
2022/05/03 14:33:07;;;;;;;2.97;1.40;;;;;;;26.90;24.41;98233.72;4936313;29;20063;-68
2022/05/03 14:35:34;;;;;;;2.00;1.30;;;;;;;26.89;24.31;98230.19;4936579;29;20086;-69
2022/05/03 14:38:00;;;;;;;2.58;1.45;;;;;;;26.89;23.92;98219.34;4936477;29;20039;-68
2022/05/03 14:40:25;;;;;;;2.45;1.50;;;;;;;26.89;24.01;98227.47;4936560;29;20045;-68
2022/05/03 14:42:51;;;;;;;4.47;1.80;;;;;;;26.86;24.09;98229.88;4936717;29;20031;-68
2022/05/03 14:45:18;;;;;;;4.72;1.38;;;;;;;26.84;24.31;98223.91;4936448;29;20040;-70
2022/05/03 14:47:44;;;;;;;2.10;1.15;;;;;;;26.83;24.06;98236.63;4936383;29;20063;-69
2022/05/03 14:50:11;;;;;;;2.58;1.23;;;;;;;26.82;24.08;98223.34;4936628;29;20035;-67
2022/05/03 14:52:38;;;;;;;4.30;1.17;;;;;;;26.83;24.09;98216.84;4936204;29;20039;-69
2022/05/03 14:55:05;;;;;;;2.80;1.30;;;;;;;26.81;24.03;98230.66;4936616;29;20035;-68
2022/05/03 15:02:59;;;;;;;4.25;1.27;;;;;;;26.76;23.94;98217.84;4935810;29;20371;-67
2022/05/03 15:05:32;;;;;;;1.80;1.50;;;;;;;26.76;23.67;98212.41;4936266;29;20035;-70
2022/05/03 15:08:03;;;;;;;2.67;1.20;;;;;;;26.73;23.89;98214.84;4935761;29;20102;-68
2022/05/03 15:10:30;;;;;;;3.60;1.23;;;;;;;26.71;23.87;98212.38;4936106;29;20482;-67
2022/05/03 15:12:58;;;;;;;3.92;1.40;;;;;;;26.71;23.72;98214.28;4935560;29;20418;-67
2022/05/03 15:15:25;;;;;;;4.22;1.08;;;;;;;26.71;24.03;98219.69;4936700;29;20035;-68
2022/05/03 15:17:50;;;;;;;2.72;1.95;;;;;;;26.70;23.93;98212.63;4935755;29;20086;-66
2022/05/03 15:20:19;;;;;;;2.63;1.48;;;;;;;26.70;23.79;98196.34;4935886;29;20118;-68
2022/05/03 15:25:30;;;;;;;3.13;1.42;;;;;;;26.62;23.65;98217.44;4936105;29;20038;-68
2022/05/03 15:27:55;;;;;;;6.57;1.40;;;;;;;26.61;23.79;98204.97;4935890;29;20047;-68
2022/05/03 15:30:22;;;;;;;2.10;1.20;;;;;;;26.60;23.84;98207.94;4935938;29;20042;-68